sensor_id;sensor_type;location;lat;lon;timestamp;pressure;altitude;pressure_sealevel;temperature;humidity
82160;BME280;77253;50.876;7.372;2024-03-17T00:01:35;99775.03;;;6.72;89.66
82160;BME280;77253;50.876;7.372;2024-03-17T00:04:02;99762.81;;;6.64;89.30
82160;BME280;77253;50.876;7.372;2024-03-17T00:06:27;99770.69;;;6.67;89.03
82160;BME280;77253;50.876;7.372;2024-03-17T00:08:54;99773.28;;;6.70;89.35
82160;BME280;77253;50.876;7.372;2024-03-17T00:11:20;99771.53;;;6.69;88.85
82160;BME280;77253;50.876;7.372;2024-03-17T00:13:46;99754.91;;;6.62;89.05
82160;BME280;77253;50.876;7.372;2024-03-17T00:16:12;99761.91;;;6.66;89.08
82160;BME280;77253;50.876;7.372;2024-03-17T00:18:39;99747.00;;;6.62;88.76
82160;BME280;77253;50.876;7.372;2024-03-17T00:21:06;99736.47;;;6.64;89.04
82160;BME280;77253;50.876;7.372;2024-03-17T00:23:33;99746.19;;;6.59;89.33
82160;BME280;77253;50.876;7.372;2024-03-17T00:25:59;99746.19;;;6.60;89.47
82160;BME280;77253;50.876;7.372;2024-03-17T00:28:25;99751.47;;;6.56;88.89
82160;BME280;77253;50.876;7.372;2024-03-17T00:30:51;99746.19;;;6.59;89.38
82160;BME280;77253;50.876;7.372;2024-03-17T00:33:17;99745.31;;;6.58;88.69
82160;BME280;77253;50.876;7.372;2024-03-17T00:35:44;99746.19;;;6.60;88.81
82160;BME280;77253;50.876;7.372;2024-03-17T00:38:10;99739.19;;;6.54;89.19
82160;BME280;77253;50.876;7.372;2024-03-17T00:40:39;99740.16;;;6.46;89.85
82160;BME280;77253;50.876;7.372;2024-03-17T00:43:07;99741.06;;;6.40;88.83
82160;BME280;77253;50.876;7.372;2024-03-17T00:45:33;99743.66;;;6.45;89.40
82160;BME280;77253;50.876;7.372;2024-03-17T00:47:59;99739.22;;;6.48;90.19
82160;BME280;77253;50.876;7.372;2024-03-17T00:50:25;99739.22;;;6.48;89.87
82160;BME280;77253;50.876;7.372;2024-03-17T00:52:51;99727.88;;;6.46;90.22
82160;BME280;77253;50.876;7.372;2024-03-17T00:55:16;99729.63;;;6.47;89.53
82160;BME280;77253;50.876;7.372;2024-03-17T00:57:43;99720.84;;;6.47;89.20
82160;BME280;77253;50.876;7.372;2024-03-17T01:00:09;99722.59;;;6.48;89.72
82160;BME280;77253;50.876;7.372;2024-03-17T01:02:36;99715.63;;;6.41;90.34
82160;BME280;77253;50.876;7.372;2024-03-17T01:05:02;99712.09;;;6.43;89.87
82160;BME280;77253;50.876;7.372;2024-03-17T01:07:31;99706.00;;;6.38;90.51
82160;BME280;77253;50.876;7.372;2024-03-17T01:09:56;99706.84;;;6.43;90.14
82160;BME280;77253;50.876;7.372;2024-03-17T01:12:22;99709.47;;;6.43;90.23
82160;BME280;77253;50.876;7.372;2024-03-17T01:14:48;99702.44;;;6.42;90.17
82160;BME280;77253;50.876;7.372;2024-03-17T01:17:14;99696.34;;;6.39;90.33
82160;BME280;77253;50.876;7.372;2024-03-17T01:19:40;99703.34;;;6.40;90.29
82160;BME280;77253;50.876;7.372;2024-03-17T01:22:06;99698.94;;;6.42;89.72
82160;BME280;77253;50.876;7.372;2024-03-17T01:24:32;99698.16;;;6.34;90.07
82160;BME280;77253;50.876;7.372;2024-03-17T01:26:59;99684.97;;;6.32;90.38
82160;BME280;77253;50.876;7.372;2024-03-17T01:29:24;99688.53;;;6.28;89.71
82160;BME280;77253;50.876;7.372;2024-03-17T01:31:51;99684.16;;;6.30;89.68
82160;BME280;77253;50.876;7.372;2024-03-17T01:34:18;99687.66;;;6.28;90.15
82160;BME280;77253;50.876;7.372;2024-03-17T01:36:45;99683.28;;;6.28;90.28
82160;BME280;77253;50.876;7.372;2024-03-17T01:39:10;99668.38;;;6.27;90.23
82160;BME280;77253;50.876;7.372;2024-03-17T01:41:38;99678.84;;;6.35;90.25
82160;BME280;77253;50.876;7.372;2024-03-17T01:44:04;99662.28;;;6.22;90.15
82160;BME280;77253;50.876;7.372;2024-03-17T01:46:30;99669.25;;;6.26;89.88
82160;BME280;77253;50.876;7.372;2024-03-17T01:48:56;99664.03;;;6.20;90.55
82160;BME280;77253;50.876;7.372;2024-03-17T01:51:23;99670.19;;;6.21;90.22
82160;BME280;77253;50.876;7.372;2024-03-17T01:53:49;99666.69;;;6.20;90.37
82160;BME280;77253;50.876;7.372;2024-03-17T01:56:16;99658.81;;;6.17;91.05
82160;BME280;77253;50.876;7.372;2024-03-17T01:58:45;99655.38;;;6.09;90.12
82160;BME280;77253;50.876;7.372;2024-03-17T02:01:12;99659.78;;;6.10;90.45
82160;BME280;77253;50.876;7.372;2024-03-17T02:03:39;99654.53;;;6.07;90.99
82160;BME280;77253;50.876;7.372;2024-03-17T02:06:07;99655.50;;;5.97;90.37
82160;BME280;77253;50.876;7.372;2024-03-17T02:08:50;99664.28;;;5.93;90.46
82160;BME280;77253;50.876;7.372;2024-03-17T02:11:28;99654.66;;;5.95;91.01
82160;BME280;77253;50.876;7.372;2024-03-17T02:13:53;99655.56;;;5.88;91.19
82160;BME280;77253;50.876;7.372;2024-03-17T02:16:21;99653.84;;;5.87;90.84
82160;BME280;77253;50.876;7.372;2024-03-17T02:18:47;99659.09;;;5.87;91.41
82160;BME280;77253;50.876;7.372;2024-03-17T02:21:14;99660.84;;;5.82;91.49
82160;BME280;77253;50.876;7.372;2024-03-17T02:23:43;99661.75;;;5.78;90.59
82160;BME280;77253;50.876;7.372;2024-03-17T02:26:10;99646.03;;;5.69;90.34
82160;BME280;77253;50.876;7.372;2024-03-17T02:28:41;99652.19;;;5.69;90.86
82160;BME280;77253;50.876;7.372;2024-03-17T02:31:11;99652.19;;;5.68;90.74
82160;BME280;77253;50.876;7.372;2024-03-17T02:33:36;99657.47;;;5.65;90.49
82160;BME280;77253;50.876;7.372;2024-03-17T02:36:04;99650.50;;;5.57;90.55
82160;BME280;77253;50.876;7.372;2024-03-17T02:38:30;99647.03;;;5.52;90.64
82160;BME280;77253;50.876;7.372;2024-03-17T02:41:15;99650.53;;;5.53;90.75
82160;BME280;77253;50.876;7.372;2024-03-17T02:43:42;99650.56;;;5.48;90.84
82160;BME280;77253;50.876;7.372;2024-03-17T02:46:12;99640.88;;;5.56;92.25
82160;BME280;77253;50.876;7.372;2024-03-17T02:48:39;99650.41;;;5.67;92.07
82160;BME280;77253;50.876;7.372;2024-03-17T02:51:13;99653.06;;;5.67;91.77
82160;BME280;77253;50.876;7.372;2024-03-17T02:53:41;99646.91;;;5.68;91.46
82160;BME280;77253;50.876;7.372;2024-03-17T02:56:08;99649.59;;;5.60;91.57
82160;BME280;77253;50.876;7.372;2024-03-17T02:58:37;99655.69;;;5.67;91.75
82160;BME280;77253;50.876;7.372;2024-03-17T03:01:04;99660.09;;;5.65;91.49
82160;BME280;77253;50.876;7.372;2024-03-17T03:03:32;99664.47;;;5.62;91.44
82160;BME280;77253;50.876;7.372;2024-03-17T03:05:59;99659.22;;;5.62;91.67
82160;BME280;77253;50.876;7.372;2024-03-17T03:08:32;99656.66;;;5.56;91.52
82160;BME280;77253;50.876;7.372;2024-03-17T03:10:59;99665.44;;;5.54;91.44
82160;BME280;77253;50.876;7.372;2024-03-17T03:13:25;99667.19;;;5.53;91.26
82160;BME280;77253;50.876;7.372;2024-03-17T03:15:52;99660.19;;;5.51;91.55
82160;BME280;77253;50.876;7.372;2024-03-17T03:18:18;99662.81;;;5.52;92.43
82160;BME280;77253;50.876;7.372;2024-03-17T03:20:50;99659.34;;;5.49;92.17
82160;BME280;77253;50.876;7.372;2024-03-17T03:23:18;99657.56;;;5.48;91.10
82160;BME280;77253;50.876;7.372;2024-03-17T03:25:45;99650.63;;;5.39;91.19
82160;BME280;77253;50.876;7.372;2024-03-17T03:28:11;99651.53;;;5.35;91.20
82160;BME280;77253;50.876;7.372;2024-03-17T03:30:38;99652.44;;;5.28;91.03
82160;BME280;77253;50.876;7.372;2024-03-17T03:33:05;99655.06;;;5.30;90.86
82160;BME280;77253;50.876;7.372;2024-03-17T03:35:31;99659.44;;;5.26;90.79
82160;BME280;77253;50.876;7.372;2024-03-17T03:37:58;99651.63;;;5.19;90.73
82160;BME280;77253;50.876;7.372;2024-03-17T03:40:26;99661.19;;;5.27;91.03
82160;BME280;77253;50.876;7.372;2024-03-17T03:42:53;99650.69;;;5.27;91.82
82160;BME280;77253;50.876;7.372;2024-03-17T03:45:19;99653.34;;;5.26;91.40
82160;BME280;77253;50.876;7.372;2024-03-17T03:47:46;99650.69;;;5.27;91.42
82160;BME280;77253;50.876;7.372;2024-03-17T03:50:15;99641.13;;;5.22;92.54
82160;BME280;77253;50.876;7.372;2024-03-17T03:52:42;99652.47;;;5.25;92.58
82160;BME280;77253;50.876;7.372;2024-03-17T03:55:09;99655.94;;;5.33;92.61
82160;BME280;77253;50.876;7.372;2024-03-17T03:57:40;99654.19;;;5.32;92.36
82160;BME280;77253;50.876;7.372;2024-03-17T04:00:07;99647.16;;;5.31;91.95
82160;BME280;77253;50.876;7.372;2024-03-17T04:02:42;99653.28;;;5.35;92.67
82160;BME280;77253;50.876;7.372;2024-03-17T04:05:09;99648.91;;;5.37;92.51
82160;BME280;77253;50.876;7.372;2024-03-17T04:07:37;99641.88;;;5.37;92.49
82160;BME280;77253;50.876;7.372;2024-03-17T04:10:05;99647.19;;;5.30;92.34
82160;BME280;77253;50.876;7.372;2024-03-17T04:12:37;99644.56;;;5.30;92.05
82160;BME280;77253;50.876;7.372;2024-03-17T04:15:04;99640.22;;;5.21;92.06
82160;BME280;77253;50.876;7.372;2024-03-17T04:17:32;99640.25;;;5.15;92.45
82160;BME280;77253;50.876;7.372;2024-03-17T04:19:58;99649.00;;;5.14;92.62
82160;BME280;77253;50.876;7.372;2024-03-17T04:22:25;99632.38;;;5.13;92.55
82160;BME280;77253;50.876;7.372;2024-03-17T04:24:52;99649.06;;;5.08;92.54
82160;BME280;77253;50.876;7.372;2024-03-17T04:27:20;99642.94;;;5.07;92.30
82160;BME280;77253;50.876;7.372;2024-03-17T04:29:47;99650.81;;;5.03;92.68
82160;BME280;77253;50.876;7.372;2024-03-17T04:32:14;99630.69;;;4.97;92.36
82160;BME280;77253;50.876;7.372;2024-03-17T04:34:40;99632.47;;;4.94;92.24
82160;BME280;77253;50.876;7.372;2024-03-17T04:37:08;99635.09;;;4.94;92.96
82160;BME280;77253;50.876;7.372;2024-03-17T04:39:36;99628.16;;;4.84;92.88
82160;BME280;77253;50.876;7.372;2024-03-17T04:42:03;99633.38;;;4.90;93.69
82160;BME280;77253;50.876;7.372;2024-03-17T04:44:29;99626.38;;;4.92;93.69
82160;BME280;77253;50.876;7.372;2024-03-17T04:46:56;99627.22;;;4.97;92.67
82160;BME280;77253;50.876;7.372;2024-03-17T04:49:22;99629.84;;;4.94;93.62
82160;BME280;77253;50.876;7.372;2024-03-17T04:51:48;99638.59;;;5.00;93.86
82160;BME280;77253;50.876;7.372;2024-03-17T04:54:15;99623.75;;;4.90;92.69
82160;BME280;77253;50.876;7.372;2024-03-17T04:56:41;99627.22;;;4.95;93.51
82160;BME280;77253;50.876;7.372;2024-03-17T04:59:08;99615.88;;;4.86;93.48
82160;BME280;77253;50.876;7.372;2024-03-17T05:01:34;99615.88;;;4.86;94.04
82160;BME280;77253;50.876;7.372;2024-03-17T05:04:02;99614.19;;;4.79;93.83
82160;BME280;77253;50.876;7.372;2024-03-17T05:06:29;99625.56;;;4.73;94.32
82160;BME280;77253;50.876;7.372;2024-03-17T05:08:56;99623.78;;;4.78;94.00
82160;BME280;77253;50.876;7.372;2024-03-17T05:11:22;99618.53;;;4.78;93.10
82160;BME280;77253;50.876;7.372;2024-03-17T05:13:49;99617.72;;;4.68;92.77
82160;BME280;77253;50.876;7.372;2024-03-17T05:16:15;99616.84;;;4.66;93.30
82160;BME280;77253;50.876;7.372;2024-03-17T05:18:42;99619.47;;;4.66;93.18
82160;BME280;77253;50.876;7.372;2024-03-17T05:21:09;99605.47;;;4.67;94.14
82160;BME280;77253;50.876;7.372;2024-03-17T05:23:37;99610.75;;;4.58;92.64
82160;BME280;77253;50.876;7.372;2024-03-17T05:26:04;99609.00;;;4.63;93.70
82160;BME280;77253;50.876;7.372;2024-03-17T05:28:30;99615.94;;;4.69;92.83
82160;BME280;77253;50.876;7.372;2024-03-17T05:30:57;99615.97;;;4.67;94.07
82160;BME280;77253;50.876;7.372;2024-03-17T05:33:24;99614.22;;;4.73;93.49
82160;BME280;77253;50.876;7.372;2024-03-17T05:35:55;99615.06;;;4.76;93.14
82160;BME280;77253;50.876;7.372;2024-03-17T05:38:23;99615.13;;;4.64;91.71
82160;BME280;77253;50.876;7.372;2024-03-17T05:40:57;99617.72;;;4.68;92.92
82160;BME280;77253;50.876;7.372;2024-03-17T05:43:25;99629.94;;;4.76;92.96
82160;BME280;77253;50.876;7.372;2024-03-17T05:45:58;99615.94;;;4.74;93.38
82160;BME280;77253;50.876;7.372;2024-03-17T05:48:26;99615.06;;;4.76;93.82
82160;BME280;77253;50.876;7.372;2024-03-17T05:50:52;99620.31;;;4.81;93.55
82160;BME280;77253;50.876;7.372;2024-03-17T05:53:20;99607.22;;;4.72;93.25
82160;BME280;77253;50.876;7.372;2024-03-17T05:55:49;99604.53;;;4.82;93.71
82160;BME280;77253;50.876;7.372;2024-03-17T05:58:16;99613.28;;;4.83;94.31
82160;BME280;77253;50.876;7.372;2024-03-17T06:00:42;99615.00;;;4.90;93.95
82160;BME280;77253;50.876;7.372;2024-03-17T06:03:09;99614.09;;;4.94;93.12
82160;BME280;77253;50.876;7.372;2024-03-17T06:05:37;99617.63;;;4.93;93.38
82160;BME280;77253;50.876;7.372;2024-03-17T06:08:06;99609.72;;;4.94;93.95
82160;BME280;77253;50.876;7.372;2024-03-17T06:10:35;99614.03;;;5.07;92.91
82160;BME280;77253;50.876;7.372;2024-03-17T06:13:02;99616.59;;;5.15;92.87
82160;BME280;77253;50.876;7.372;2024-03-17T06:15:29;99627.03;;;5.27;93.20
82160;BME280;77253;50.876;7.372;2024-03-17T06:17:58;99620.00;;;5.34;92.26
82160;BME280;77253;50.876;7.372;2024-03-17T06:20:26;99608.59;;;5.36;92.06
82160;BME280;77253;50.876;7.372;2024-03-17T06:22:53;99612.06;;;5.38;92.25
82160;BME280;77253;50.876;7.372;2024-03-17T06:25:20;99598.03;;;5.45;90.86
82160;BME280;77253;50.876;7.372;2024-03-17T06:27:49;99604.97;;;5.51;90.65
82160;BME280;77253;50.876;7.372;2024-03-17T06:30:15;99587.47;;;5.48;91.70
82160;BME280;77253;50.876;7.372;2024-03-17T06:32:43;99583.91;;;5.55;91.57
82160;BME280;77253;50.876;7.372;2024-03-17T06:35:10;99582.06;;;5.67;91.08
82160;BME280;77253;50.876;7.372;2024-03-17T06:37:37;99588.16;;;5.73;91.52
82160;BME280;77253;50.876;7.372;2024-03-17T06:40:04;99584.59;;;5.79;90.49
82160;BME280;77253;50.876;7.372;2024-03-17T06:42:31;99586.38;;;5.78;90.80
82160;BME280;77253;50.876;7.372;2024-03-17T06:44:58;99590.75;;;5.75;90.95
82160;BME280;77253;50.876;7.372;2024-03-17T06:47:24;99584.69;;;5.68;90.83
82160;BME280;77253;50.876;7.372;2024-03-17T06:49:51;99588.22;;;5.64;89.81
82160;BME280;77253;50.876;7.372;2024-03-17T06:52:18;99576.69;;;5.82;89.58
82160;BME280;77253;50.876;7.372;2024-03-17T06:54:47;99580.28;;;5.72;89.93
82160;BME280;77253;50.876;7.372;2024-03-17T06:57:15;99581.25;;;5.61;89.93
82160;BME280;77253;50.876;7.372;2024-03-17T06:59:42;99569.88;;;5.59;90.88
82160;BME280;77253;50.876;7.372;2024-03-17T07:02:10;99570.75;;;5.61;91.44
82160;BME280;77253;50.876;7.372;2024-03-17T07:04:37;99569.69;;;5.81;91.47
82160;BME280;77253;50.876;7.372;2024-03-17T07:07:04;99581.78;;;6.01;90.17
82160;BME280;77253;50.876;7.372;2024-03-17T07:09:30;99575.41;;;6.24;88.94
82160;BME280;77253;50.876;7.372;2024-03-17T07:11:56;99576.41;;;6.15;89.05
82160;BME280;77253;50.876;7.372;2024-03-17T07:14:23;99574.66;;;6.14;89.48
82160;BME280;77253;50.876;7.372;2024-03-17T07:16:51;99583.66;;;5.89;88.67
82160;BME280;77253;50.876;7.372;2024-03-17T07:19:17;99583.66;;;5.86;90.99
82160;BME280;77253;50.876;7.372;2024-03-17T07:21:44;99574.03;;;5.91;90.29
82160;BME280;77253;50.876;7.372;2024-03-17T07:24:10;99583.56;;;6.01;90.57
82160;BME280;77253;50.876;7.372;2024-03-17T07:26:36;99582.50;;;6.19;88.64
82160;BME280;77253;50.876;7.372;2024-03-17T07:29:03;99582.56;;;6.14;89.83
82160;BME280;77253;50.876;7.372;2024-03-17T07:31:29;99584.31;;;6.12;90.29
82160;BME280;77253;50.876;7.372;2024-03-17T07:33:56;99578.13;;;6.16;89.35
82160;BME280;77253;50.876;7.372;2024-03-17T07:36:23;99573.56;;;6.33;88.96
82160;BME280;77253;50.876;7.372;2024-03-17T07:38:49;99570.88;;;6.39;87.45
82160;BME280;77253;50.876;7.372;2024-03-17T07:41:16;99566.50;;;6.38;86.58
82160;BME280;77253;50.876;7.372;2024-03-17T07:43:42;99561.22;;;6.38;88.19
82160;BME280;77253;50.876;7.372;2024-03-17T07:46:10;99564.63;;;6.48;86.79
82160;BME280;77253;50.876;7.372;2024-03-17T07:48:39;99561.91;;;6.56;88.18
82160;BME280;77253;50.876;7.372;2024-03-17T07:51:08;99566.97;;;6.69;87.35
82160;BME280;77253;50.876;7.372;2024-03-17T07:53:39;99571.22;;;6.81;85.39
82160;BME280;77253;50.876;7.372;2024-03-17T07:56:07;99561.31;;;6.99;85.61
82160;BME280;77253;50.876;7.372;2024-03-17T07:58:35;99575.44;;;6.94;84.90
82160;BME280;77253;50.876;7.372;2024-03-17T08:01:04;99591.81;;;7.17;84.72
82160;BME280;77253;50.876;7.372;2024-03-17T08:03:33;99589.03;;;7.26;85.57
82160;BME280;77253;50.876;7.372;2024-03-17T08:06:00;99588.00;;;7.36;85.63
82160;BME280;77253;50.876;7.372;2024-03-17T08:08:42;99589.13;;;7.20;85.37
82160;BME280;77253;50.876;7.372;2024-03-17T08:11:09;99588.03;;;7.35;86.18
82160;BME280;77253;50.876;7.372;2024-03-17T08:13:35;99591.34;;;7.46;85.58
82160;BME280;77253;50.876;7.372;2024-03-17T08:16:03;99597.19;;;7.68;84.57
82160;BME280;77253;50.876;7.372;2024-03-17T08:18:31;99588.25;;;7.76;84.49
82160;BME280;77253;50.876;7.372;2024-03-17T08:21:00;99591.44;;;7.95;82.23
82160;BME280;77253;50.876;7.372;2024-03-17T08:23:27;99599.94;;;8.12;80.62
82160;BME280;77253;50.876;7.372;2024-03-17T08:25:58;99587.19;;;8.35;81.95
82160;BME280;77253;50.876;7.372;2024-03-17T08:28:25;99575.13;;;8.22;81.32
82160;BME280;77253;50.876;7.372;2024-03-17T08:30:55;99575.13;;;8.21;81.40
82160;BME280;77253;50.876;7.372;2024-03-17T08:33:22;99582.56;;;8.48;80.87
82160;BME280;77253;50.876;7.372;2024-03-17T08:36:16;99577.69;;;8.27;80.01
82160;BME280;77253;50.876;7.372;2024-03-17T08:38:41;99595.97;;;8.37;78.60
82160;BME280;77253;50.876;7.372;2024-03-17T08:41:09;99588.28;;;8.70;79.90
82160;BME280;77253;50.876;7.372;2024-03-17T08:43:46;99588.63;;;8.96;80.08
82160;BME280;77253;50.876;7.372;2024-03-17T08:46:12;99591.19;;;9.39;76.48
82160;BME280;77253;50.876;7.372;2024-03-17T08:48:40;99587.72;;;9.37;76.45
82160;BME280;77253;50.876;7.372;2024-03-17T08:51:08;99580.44;;;9.08;76.96
82160;BME280;77253;50.876;7.372;2024-03-17T08:53:36;99587.97;;;8.85;76.52
82160;BME280;77253;50.876;7.372;2024-03-17T08:56:04;99590.22;;;8.60;77.45
82160;BME280;77253;50.876;7.372;2024-03-17T08:58:31;99574.53;;;8.53;76.59
82160;BME280;77253;50.876;7.372;2024-03-17T09:00:58;99565.91;;;8.88;78.38
82160;BME280;77253;50.876;7.372;2024-03-17T09:03:24;99565.88;;;9.27;75.11
82160;BME280;77253;50.876;7.372;2024-03-17T09:05:52;99553.13;;;9.45;75.30
82160;BME280;77253;50.876;7.372;2024-03-17T09:08:23;99543.56;;;9.39;73.66
82160;BME280;77253;50.876;7.372;2024-03-17T09:10:52;99560.69;;;9.24;73.95
82160;BME280;77253;50.876;7.372;2024-03-17T09:13:24;99550.31;;;9.15;74.65
82160;BME280;77253;50.876;7.372;2024-03-17T09:15:59;99542.75;;;8.99;74.97
82160;BME280;77253;50.876;7.372;2024-03-17T09:18:26;99550.66;;;9.00;75.92
82160;BME280;77253;50.876;7.372;2024-03-17T09:23:26;99555.25;;;8.92;77.81
82160;BME280;77253;50.876;7.372;2024-03-17T09:25:57;99550.00;;;8.89;77.51
82160;BME280;77253;50.876;7.372;2024-03-17T09:28:24;99559.56;;;8.96;77.58
82160;BME280;77253;50.876;7.372;2024-03-17T09:30:51;99559.88;;;8.81;78.24
82160;BME280;77253;50.876;7.372;2024-03-17T09:33:19;99549.00;;;8.95;77.77
82160;BME280;77253;50.876;7.372;2024-03-17T09:35:55;99531.41;;;9.30;77.04
82160;BME280;77253;50.876;7.372;2024-03-17T09:38:22;99539.81;;;9.83;75.26
82160;BME280;77253;50.876;7.372;2024-03-17T09:40:49;99547.91;;;10.11;73.01
82160;BME280;77253;50.876;7.372;2024-03-17T09:43:18;99552.41;;;10.07;74.37
82160;BME280;77253;50.876;7.372;2024-03-17T09:45:45;99553.88;;;9.85;73.98
82160;BME280;77253;50.876;7.372;2024-03-17T09:48:14;99561.50;;;9.62;73.38
82160;BME280;77253;50.876;7.372;2024-03-17T09:50:46;99561.06;;;9.45;76.81
82160;BME280;77253;50.876;7.372;2024-03-17T09:53:16;99560.72;;;9.21;76.18
82160;BME280;77253;50.876;7.372;2024-03-17T09:55:43;99553.97;;;9.47;75.98
82160;BME280;77253;50.876;7.372;2024-03-17T09:58:15;99543.66;;;9.70;76.21
82160;BME280;77253;50.876;7.372;2024-03-17T10:00:42;99548.97;;;9.70;75.57
82160;BME280;77253;50.876;7.372;2024-03-17T10:03:09;99553.03;;;9.85;74.50
82160;BME280;77253;50.876;7.372;2024-03-17T10:05:35;99555.38;;;9.95;74.79
82160;BME280;77253;50.876;7.372;2024-03-17T10:08:02;99563.84;;;10.09;74.81
82160;BME280;77253;50.876;7.372;2024-03-17T10:10:28;99560.53;;;10.01;73.22
82160;BME280;77253;50.876;7.372;2024-03-17T10:12:55;99565.31;;;10.21;73.63
82160;BME280;77253;50.876;7.372;2024-03-17T10:15:21;99563.31;;;10.31;73.36
82160;BME280;77253;50.876;7.372;2024-03-17T10:17:48;99567.34;;;10.44;74.15
82160;BME280;77253;50.876;7.372;2024-03-17T10:20:20;99563.56;;;10.83;72.88
82160;BME280;77253;50.876;7.372;2024-03-17T10:23:06;99570.06;;;11.02;70.92
82160;BME280;77253;50.876;7.372;2024-03-17T10:25:39;99550.69;;;11.00;70.21
82160;BME280;77253;50.876;7.372;2024-03-17T10:28:12;99553.66;;;11.17;70.00
82160;BME280;77253;50.876;7.372;2024-03-17T10:30:39;99552.34;;;11.04;70.12
82160;BME280;77253;50.876;7.372;2024-03-17T10:33:07;99546.63;;;11.44;70.56
82160;BME280;77253;50.876;7.372;2024-03-17T10:35:47;99549.31;;;11.44;69.06
82160;BME280;77253;50.876;7.372;2024-03-17T10:38:15;99549.53;;;11.37;69.13
82160;BME280;77253;50.876;7.372;2024-03-17T10:40:41;99552.38;;;11.03;70.58
82160;BME280;77253;50.876;7.372;2024-03-17T10:43:10;99543.41;;;10.78;70.51
82160;BME280;77253;50.876;7.372;2024-03-17T10:45:36;99561.72;;;10.85;70.95
82160;BME280;77253;50.876;7.372;2024-03-17T10:48:07;99566.81;;;10.63;71.26
82160;BME280;77253;50.876;7.372;2024-03-17T10:50:37;99553.13;;;10.77;71.43
82160;BME280;77253;50.876;7.372;2024-03-17T10:53:06;99570.88;;;10.75;72.25
82160;BME280;77253;50.876;7.372;2024-03-17T10:58:33;99560.41;;;10.70;68.13
82160;BME280;77253;50.876;7.372;2024-03-17T11:01:01;99557.13;;;10.92;68.47
82160;BME280;77253;50.876;7.372;2024-03-17T11:03:28;99549.38;;;11.13;72.44
82160;BME280;77253;50.876;7.372;2024-03-17T11:05:57;99558.28;;;11.12;67.46
82160;BME280;77253;50.876;7.372;2024-03-17T11:08:25;99555.19;;;10.97;68.58
82160;BME280;77253;50.876;7.372;2024-03-17T11:10:52;99548.84;;;10.73;68.52
82160;BME280;77253;50.876;7.372;2024-03-17T11:13:29;99540.97;;;10.70;70.53
82160;BME280;77253;50.876;7.372;2024-03-17T11:15:57;99542.72;;;10.71;70.33
82160;BME280;77253;50.876;7.372;2024-03-17T11:18:28;99543.25;;;11.11;70.67
82160;BME280;77253;50.876;7.372;2024-03-17T11:23:30;99541.88;;;11.54;68.29
82160;BME280;77253;50.876;7.372;2024-03-17T11:25:58;99545.94;;;11.93;68.56
82160;BME280;77253;50.876;7.372;2024-03-17T11:31:42;99550.28;;;12.21;66.57
82160;BME280;77253;50.876;7.372;2024-03-17T11:36:55;99542.06;;;12.27;66.14
82160;BME280;77253;50.876;7.372;2024-03-17T11:39:50;99545.81;;;12.46;64.50
82160;BME280;77253;50.876;7.372;2024-03-17T11:42:21;99557.94;;;12.78;64.88
82160;BME280;77253;50.876;7.372;2024-03-17T11:45:01;99551.59;;;13.28;61.69
82160;BME280;77253;50.876;7.372;2024-03-17T11:47:33;99541.66;;;13.09;61.05
82160;BME280;77253;50.876;7.372;2024-03-17T11:50:02;99540.59;;;13.14;62.10
82160;BME280;77253;50.876;7.372;2024-03-17T11:52:28;99536.66;;;13.46;60.79
82160;BME280;77253;50.876;7.372;2024-03-17T11:54:54;99541.25;;;13.64;62.34
82160;BME280;77253;50.876;7.372;2024-03-17T11:57:23;99527.69;;;14.31;61.44
82160;BME280;77253;50.876;7.372;2024-03-17T11:59:48;99511.34;;;14.40;60.48
82160;BME280;77253;50.876;7.372;2024-03-17T12:02:23;99521.97;;;14.60;58.46
82160;BME280;77253;50.876;7.372;2024-03-17T12:04:51;99520.19;;;14.00;59.34
82160;BME280;77253;50.876;7.372;2024-03-17T12:07:20;99512.25;;;14.19;60.02
82160;BME280;77253;50.876;7.372;2024-03-17T12:09:46;99509.31;;;13.84;61.09
82160;BME280;77253;50.876;7.372;2024-03-17T12:12:26;99501.72;;;13.10;60.94
82160;BME280;77253;50.876;7.372;2024-03-17T12:14:59;99508.25;;;13.01;60.52
82160;BME280;77253;50.876;7.372;2024-03-17T12:17:26;99501.09;;;12.80;63.12
82160;BME280;77253;50.876;7.372;2024-03-17T12:19:52;99497.44;;;12.36;63.92
82160;BME280;77253;50.876;7.372;2024-03-17T12:22:20;99498.44;;;12.34;65.00
82160;BME280;77253;50.876;7.372;2024-03-17T12:24:48;99484.22;;;12.35;64.15
82160;BME280;77253;50.876;7.372;2024-03-17T12:27:19;99486.34;;;12.48;65.29
82160;BME280;77253;50.876;7.372;2024-03-17T12:29:46;99484.41;;;12.53;64.07
82160;BME280;77253;50.876;7.372;2024-03-17T12:32:15;99474.34;;;12.38;65.63
82160;BME280;77253;50.876;7.372;2024-03-17T12:34:42;99478.47;;;12.47;64.51
82160;BME280;77253;50.876;7.372;2024-03-17T12:37:15;99480.53;;;12.39;64.88
82160;BME280;77253;50.876;7.372;2024-03-17T12:39:41;99464.03;;;12.06;64.95
82160;BME280;77253;50.876;7.372;2024-03-17T12:42:15;99478.41;;;12.24;64.29
82160;BME280;77253;50.876;7.372;2024-03-17T12:49:53;99473.84;;;12.97;64.64
82160;BME280;77253;50.876;7.372;2024-03-17T12:52:31;99459.06;;;12.90;61.92
82160;BME280;77253;50.876;7.372;2024-03-17T12:55:00;99465.28;;;12.67;63.33
82160;BME280;77253;50.876;7.372;2024-03-17T12:57:49;99460.03;;;12.42;63.20
82160;BME280;77253;50.876;7.372;2024-03-17T13:00:33;99445.16;;;12.60;64.47
82160;BME280;77253;50.876;7.372;2024-03-17T13:03:01;99455.03;;;12.56;64.03
82160;BME280;77253;50.876;7.372;2024-03-17T13:05:43;99445.03;;;12.17;63.88
82160;BME280;77253;50.876;7.372;2024-03-17T13:08:47;99440.28;;;12.48;64.43
82160;BME280;77253;50.876;7.372;2024-03-17T13:11:14;99434.59;;;12.80;64.11
82160;BME280;77253;50.876;7.372;2024-03-17T13:13:40;99428.75;;;12.94;63.10
82160;BME280;77253;50.876;7.372;2024-03-17T13:16:07;99420.75;;;12.94;61.98
82160;BME280;77253;50.876;7.372;2024-03-17T13:18:34;99425.69;;;12.81;62.82
82160;BME280;77253;50.876;7.372;2024-03-17T13:21:09;99432.50;;;12.88;63.66
82160;BME280;77253;50.876;7.372;2024-03-17T13:23:39;99418.50;;;12.62;63.41
82160;BME280;77253;50.876;7.372;2024-03-17T13:26:04;99421.25;;;12.37;62.27
82160;BME280;77253;50.876;7.372;2024-03-17T13:28:46;99405.75;;;12.48;64.51
82160;BME280;77253;50.876;7.372;2024-03-17T13:31:12;99412.31;;;12.61;63.93
82160;BME280;77253;50.876;7.372;2024-03-17T13:33:39;99395.44;;;12.62;65.39